CW5532 Fals ES current weather conditions

sailwx.info

Wind from 236

Air temperature 12.2° C
Dewpoint 3.7° C

Last reported at 2020-Jan-18 15:02 UTC.
Time now 2020-Jan-18 15:31 UTC

Location: N 41°45' E 001°43'.
View on Google Maps.

See reports from other nearby stations

  
Tides and Currents Weather Stations Pressure Air Temp Water Temp Dewpoint Dewpoint Depression Visibility Wind Speed Wind Dir Waves Ship Positions
date/time (UTC)wind fromknots sea level pressurealtimeterstation pressurevisibilityair tempwater tempwave heightnotes
2020-Jan-18 15:02 236 12.2
2020-Jan-18 14:32 237 0 gusting 4 12.8
2020-Jan-18 14:02 237 0 gusting 6 13.9
2020-Jan-18 13:37 134 11.7
2020-Jan-18 13:32 126 11.7
2020-Jan-18 13:02 111 0 gusting 2 10.6
2020-Jan-18 12:37 108 10.6
2020-Jan-18 12:32 108 10.6
2020-Jan-18 12:07 108 10.0
2020-Jan-18 11:37 111 8.9
2020-Jan-18 11:07 076 1 gusting 5 7.2
2020-Jan-18 11:02 084 7.2
2020-Jan-18 10:32 090 1 gusting 8 6.7
2020-Jan-18 10:07 190 7.8
2020-Jan-18 10:02 190 7.8
2020-Jan-18 09:32 238 5.6
2020-Jan-18 09:02 238 2.8
2020-Jan-18 08:37 240 1.7
2020-Jan-18 08:32 240 1.7
2020-Jan-18 08:07 246 1.7
2020-Jan-18 07:37 244 1.7
2020-Jan-18 07:32 245 1.1
2020-Jan-18 07:07 252 1.1
2020-Jan-18 07:02 252 1.1
2020-Jan-18 06:32 252 1.7
2020-Jan-18 05:37 252 1.1
2020-Jan-18 05:32 252 1.1
2020-Jan-18 05:07 252 1.1
2020-Jan-18 04:37 252 1.1
2020-Jan-18 04:02 275 0.6
2020-Jan-18 03:37 275 0.6
2020-Jan-18 03:32 275 0.6
2020-Jan-18 03:07 275 1.1
2020-Jan-18 02:37 275 1.7
2020-Jan-18 02:32 275 1.7
2020-Jan-18 02:02 275 0 gusting 7 3.3
2020-Jan-18 01:32 242 0 gusting 6 3.9
2020-Jan-18 01:07 256 2 gusting 8 5.6
2020-Jan-18 01:02 263 7 gusting 11 5.6
2020-Jan-18 00:07 139 4.4
2020-Jan-18 00:02 140 5.0
2020-Jan-17 23:37 268 3 gusting 10 5.0
2020-Jan-17 23:32 264 3 gusting 12 5.0
2020-Jan-17 23:07 251 8 gusting 14 6.1
2020-Jan-17 23:02 259 12 gusting 17 6.1
2020-Jan-17 22:37 257 12 gusting 17 6.1
2020-Jan-17 22:07 250 3 gusting 11 6.1
2020-Jan-17 22:02 258 1 gusting 8 6.1
2020-Jan-17 21:37 235 0 gusting 8 6.1
2020-Jan-17 21:32 266 4 gusting 13 6.7
2020-Jan-17 21:02 261 5 gusting 13 7.2
2020-Jan-17 20:37 254 2 gusting 10 7.8
2020-Jan-17 20:07 233 1 gusting 8 8.3
2020-Jan-17 20:02 260 2 gusting 13 8.9
2020-Jan-17 19:37 274 6 gusting 14 8.9
2020-Jan-17 19:32 286 2 gusting 17 8.9
2020-Jan-17 19:02 274 6 gusting 14 9.4
2020-Jan-17 18:32 261 9 gusting 19 10.0
2020-Jan-17 17:37 259 4 gusting 14 10.6
2020-Jan-17 17:32 264 6 gusting 19 10.6
2020-Jan-17 17:07 269 7 gusting 12 11.1
2020-Jan-17 17:02 262 5 gusting 13 11.1
2020-Jan-17 16:32 233 3 gusting 15 11.7
2020-Jan-17 16:07 244 6 gusting 19 12.2
2020-Jan-17 16:02 257 8 gusting 24 12.8
2020-Jan-17 15:32 256 11 gusting 31 12.8
2020-Jan-17 15:07 266 4 gusting 17 12.2
2020-Jan-17 15:02 254 10 gusting 22 12.2
2020-Jan-17 14:37 252 5 gusting 17 12.8
2020-Jan-17 14:32 251 8 gusting 24 12.8
2020-Jan-17 14:02 250 5 gusting 19 12.8
2020-Jan-17 13:37 250 8 gusting 14 13.3
2020-Jan-17 13:07 250 6 gusting 17 13.9
2020-Jan-17 13:02 263 2 gusting 19 13.9
2020-Jan-17 12:32 258 7 gusting 21 12.8
2020-Jan-17 12:02 280 8 gusting 18 13.3
2020-Jan-17 11:32 265 6 gusting 18 12.8
2020-Jan-17 11:07 273 6 gusting 13 12.2
2020-Jan-17 10:37 275 13 gusting 24 11.7
2020-Jan-17 10:07 260 10 gusting 17 11.1
2020-Jan-17 10:02 276 1 gusting 18 10.6
2020-Jan-17 09:37 255 7 gusting 13 10.0
2020-Jan-17 09:07 259 6 gusting 10 8.9
2020-Jan-17 09:02 259 1 gusting 6 8.3
2020-Jan-17 08:37 250 1 gusting 10 6.7
2020-Jan-17 08:32 239 0 gusting 11 6.1
2020-Jan-17 07:32 042 1.1
2020-Jan-17 07:02 240 5.6
2020-Jan-17 06:37 263 5.6
2020-Jan-17 06:32 265 0 gusting 15 5.6
2020-Jan-17 06:02 311 1.1
2020-Jan-17 05:37 311 1.1
2020-Jan-17 05:32 311 1.1
2020-Jan-17 05:07 264 1.1
2020-Jan-17 05:02 264 0.6
2020-Jan-17 04:32 264 0.6
2020-Jan-17 04:02 264 0.6
2020-Jan-17 03:37 264 0.6
2020-Jan-17 03:32 264 0.6
2020-Jan-17 03:07 264 1.1
2020-Jan-17 03:02 264 0.6
2020-Jan-17 02:07 264 0.6
2020-Jan-17 02:02 264 0.6
2020-Jan-17 01:37 264 1.1
2020-Jan-17 01:32 264 1.1
2020-Jan-17 01:02 264 1.1
2020-Jan-17 00:37 264 1.1
2020-Jan-17 00:07 264 1.1
2020-Jan-17 00:02 264 1.1
2020-Jan-16 23:37 264 1.7
2020-Jan-16 23:32 264 1.7
2020-Jan-16 23:02 264 1.7
2020-Jan-16 22:37 264 2.2
2020-Jan-16 22:02 264 2.8
2020-Jan-16 21:32 264 3.3
2020-Jan-16 21:02 264 3.9
2020-Jan-16 20:37 265 3.9
2020-Jan-16 20:32 265 3.9
2020-Jan-16 20:07 265 4.4
2020-Jan-16 20:02 265 5.0
2020-Jan-16 19:37 265 5.6
2020-Jan-16 18:07 262 9.4
2020-Jan-16 18:02 262 9.4
2020-Jan-16 17:37 262 8.9
2020-Jan-16 17:32 262 8.9
2020-Jan-16 17:02 262 11.1
2020-Jan-16 16:32 262 12.8
2020-Jan-16 16:07 267 0 gusting 2 13.9
2020-Jan-16 16:02 265 0 gusting 6 13.9
2020-Jan-16 15:37 236 14.4
2020-Jan-16 15:07 273 1 gusting 8 14.4
2020-Jan-16 15:02 264 1 gusting 11 14.4